Altheimer, Arkansas
Current Conditions -  °F | °C
As of 6:53 PM on Saturday 22 Nov 2014 (Local Time) from KPBF Reporting Station
Overcast Overcast  
Wind Chill: 63°   Ceiling: 3500
Heat Index: 63°   Visibility: 10mi
Dew Point: 53°   Wind: 8mph
Humidity: 70%   Direction: 150°SSE
Pressure: 29.99"   Gusts: NA
Location:  34.32°N, 91.85°W
Report Text: KPBF 230053Z AUTO 15007KT 10SM OVC035 17/12 A2999 RMK AO2 SLP155 T01720117
Loading
Personal Weather Stations






























Interactive Weather Map New forecast layout! Learn more

10-Day Weather Forecast

Advertisements
Track Severe Weather on mobile